Misión y Visión

La misión es proporcionar información fiable a la navegación aérea, contribuyendo a la seguridad, regularidad y eficiencia de la Navegación Aérea Internacional

La visión es contribuir sustancialmente al desarrollo de conocimientos y a la utilización de la meteorología aeronáutica a nivel nacional e internacional, mediante la innovación y la coparticipación con sectores sociales y productivos de la sociedad.

 
  Inicio
  Metar
  Taf
  Wintemp
  SIGMET
  Avisos
  Pronósticos
  Carpeta Meteorologica
  Imágenes Satelitales
  Climatología Aeronáutica
   
  ¿Quienes Somos?
  Contacto
  Eventos



DIRECCIONES PARA INFORMES NACIONALES E INTERNACIONALES
(Metar /Speci - TAF)



http://adds.aviationweather.gov/tafs/index.php

http://www.ogimet.com/metars.phtml



PRONÓSTICOS DE AERÓDROMO

Cuando sea necesario, el encabezamiento abreviado puede incluir un cuarto grupo consistente en tres letras para identificar los boletines demorados (RRA), corregidos(CCA) o enmendados (AAA). Los boletines adicionales demorados, corregidos o enmendados deben identificarse con las letras RRB, RRC, etc.; CCB, CCC,etc.;AAB, AAC,etc.



ESTACIONES DESCRIPCION
MPTO (M) 1911800Z 26006KT 9000 SCT018 BKN090 34/23 Q1011 NOSIG RMK HZ ALQDS=  
MPBO (M) 200100Z VRB02KT 9999 SCT018 BKN090 Q1013=  
MPCH (M) 210100Z 33004KT 9999 FEW020 SCT100 27/24 Q1013=  
MPSA (M)  
MPCE (M)  
MPPN (M) 191200Z 02006KT 9000 FEW015TCU RMK TCU NW HZ ALQDS=  
MPSM (M) 201800Z VRB04KT 9000 FEW025 SCT080 32/24 Q1009 RMK HZ ALQDS  
MPJE (M)  
MPPA (M) 210200Z 35006KT 9999 FEW018 27/// Q1009=  
MPMG (M) 210200Z 31007KT 9999 FEW018 SCT090 28/24 Q1010 NOSIG=  
MPDA (M) 210200Z VRB02KT 9000 FEW020 28/25 Q1008 RMK FU ALQDS=  
MPVR (M) 191200Z 36014KT 9000 SCT020TCU SCT100 RMK TCU SE-SW HZ ALQDS=  
MPWN (M)  
MPOA (M) 191200Z 33004KT 9000 SCT020TCU BKN060 Q1011=  
MPMF (M)  
MPEJ (M) 191200Z 36008KT 9999 SCT020 Q1010=  


CLIMATICAS

MPTO

19-04-2018

 

PCPN (mm)

T° MAX

T° MIN

VIENTO MAX (KT)

HORA

VIENTO PREDOM (KT)

0.0 mm

34.5

21.9

04014KT

1800Z

NE11KT

CLIMATICAS

MPMG

20-04-2018

PCPN (mm)

T° MAX T° MIN VIENTO MAX (KT) HORA VIENTO PREDOM (KT)
0.0 32.9 26.5

30014KT

2000Z

 NNW